createdAt,value
2022-11-29T00:02:02.703Z,100693.25
2022-11-29T00:04:30.332Z,100699.34
2022-11-29T00:06:57.667Z,100699.00
2022-11-29T00:09:24.983Z,100698.66
2022-11-29T00:12:10.827Z,100704.75
2022-11-29T00:14:38.296Z,100705.44
2022-11-29T00:17:06.011Z,100697.97
2022-11-29T00:19:35.676Z,100704.22
2022-11-29T00:22:04.059Z,100702.34
2022-11-29T00:24:32.491Z,100703.38
2022-11-29T00:27:00.489Z,100698.66
2022-11-29T00:32:13.532Z,100695.03
2022-11-29T00:34:41.069Z,100697.63
2022-11-29T00:37:08.867Z,100698.50
2022-11-29T00:39:36.929Z,100699.34
2022-11-29T00:42:05.707Z,100692.94
2022-11-29T00:44:33.359Z,100692.25
2022-11-29T00:47:00.859Z,100690.84
2022-11-29T00:49:28.264Z,100696.06
2022-11-29T00:51:55.877Z,100697.47
2022-11-29T00:54:23.333Z,100693.63
2022-11-29T00:56:50.745Z,100703.19
2022-11-29T00:59:18.201Z,100693.28
2022-11-29T01:01:45.655Z,100690.19
2022-11-29T01:04:13.137Z,100696.44
2022-11-29T01:06:40.782Z,100689.31
2022-11-29T01:09:08.265Z,100690.53
2022-11-29T01:11:35.870Z,100689.31
2022-11-29T01:14:04.275Z,100690.72
2022-11-29T01:16:32.804Z,100685.50
2022-11-29T01:19:00.895Z,100690.34
2022-11-29T01:21:28.457Z,100697.66
2022-11-29T01:23:56.349Z,100690.88
2022-11-29T01:26:27.636Z,100687.59
2022-11-29T01:28:56.736Z,100694.19
2022-11-29T01:31:27.757Z,100686.22
2022-11-29T01:33:57.282Z,100684.50
2022-11-29T01:36:25.317Z,100681.88
2022-11-29T01:38:52.948Z,100680.66
2022-11-29T01:41:23.856Z,100677.00
2022-11-29T01:43:55.919Z,100674.06
2022-11-29T01:46:24.340Z,100673.91
2022-11-29T01:48:55.313Z,100670.78
2022-11-29T01:51:23.007Z,100670.78
2022-11-29T01:53:50.556Z,100668.69
2022-11-29T01:56:18.144Z,100668.69
2022-11-29T01:58:45.766Z,100665.59
2022-11-29T02:01:14.239Z,100673.56
2022-11-29T02:03:41.987Z,100674.25
2022-11-29T02:06:09.643Z,100669.22
2022-11-29T02:08:40.691Z,100668.19
2022-11-29T02:11:36.746Z,100671.47
2022-11-29T02:14:56.810Z,100666.28
2022-11-29T02:17:41.913Z,100669.41
2022-11-29T02:20:27.763Z,100660.38
2022-11-29T02:23:04.104Z,100654.50
2022-11-29T02:25:46.580Z,100666.09
2022-11-29T02:28:27.247Z,100664.72
2022-11-29T02:31:02.946Z,100665.94
2022-11-29T02:33:39.244Z,100668.56
2022-11-29T02:36:30.036Z,100673.59
2022-11-29T02:39:52.296Z,100670.63
2022-11-29T02:42:25.501Z,100663.31
2022-11-29T02:45:19.740Z,100665.09
2022-11-29T02:48:05.224Z,100663.31
2022-11-29T02:50:59.724Z,100667.16
2022-11-29T02:53:35.412Z,100657.47
2022-11-29T02:56:40.405Z,100654.50
2022-11-29T02:59:26.352Z,100659.34
2022-11-29T03:02:27.254Z,100657.63
2022-11-29T03:05:25.117Z,100660.41
2022-11-29T03:08:00.955Z,100664.72
2022-11-29T03:10:57.477Z,100670.44
2022-11-29T03:13:46.583Z,100651.91
2022-11-29T03:16:43.647Z,100659.19
2022-11-29T03:19:23.461Z,100660.38
2022-11-29T03:22:18.871Z,100657.47
2022-11-29T03:24:55.180Z,100666.44
2022-11-29T03:27:31.050Z,100661.03
2022-11-29T03:30:05.685Z,100658.78
2022-11-29T03:32:45.632Z,100656.03
2022-11-29T03:35:22.628Z,100662.81
2022-11-29T03:38:16.849Z,100660.19
2022-11-29T03:41:15.010Z,100664.19
2022-11-29T03:44:03.345Z,100666.94
2022-11-29T03:46:38.236Z,100663.31
2022-11-29T03:49:28.638Z,100665.38
2022-11-29T03:51:58.941Z,100659.16
2022-11-29T03:54:35.183Z,100661.03
2022-11-29T03:57:02.973Z,100665.22
2022-11-29T03:59:32.983Z,100665.38
2022-11-29T04:02:41.761Z,100660.88
2022-11-29T04:05:29.436Z,100663.66
2022-11-29T04:08:11.795Z,100659.50
2022-11-29T04:11:08.307Z,100662.97
2022-11-29T04:14:04.471Z,100667.09
2022-11-29T04:17:02.979Z,100668.88
2022-11-29T04:19:48.525Z,100669.19
2022-11-29T04:22:32.714Z,100664.53
2022-11-29T04:25:15.572Z,100671.81
2022-11-29T04:28:09.175Z,100674.22
2022-11-29T04:31:14.735Z,100672.31
2022-11-29T04:34:17.966Z,100674.94
2022-11-29T04:37:09.064Z,100674.59
2022-11-29T04:40:01.081Z,100676.31
2022-11-29T04:42:55.921Z,100677.19
2022-11-29T04:46:01.376Z,100686.03
2022-11-29T04:49:05.848Z,100675.78
2022-11-29T04:52:04.188Z,100682.72
2022-11-29T04:55:09.304Z,100679.59
2022-11-29T04:58:04.272Z,100678.03
2022-11-29T05:00:44.540Z,100690.69
2022-11-29T05:03:20.376Z,100687.38
2022-11-29T05:05:53.749Z,100695.34
2022-11-29T05:08:30.613Z,100701.94
2022-11-29T05:11:01.061Z,100700.56
2022-11-29T05:13:28.516Z,100704.19
2022-11-29T05:16:04.646Z,100699.69
2022-11-29T05:19:02.975Z,100701.41
2022-11-29T05:21:30.399Z,100706.44
2022-11-29T05:24:19.221Z,100714.44
2022-11-29T05:27:33.207Z,100707.16
2022-11-29T05:30:11.481Z,100711.13
2022-11-29T05:32:57.815Z,100712.66
2022-11-29T05:35:51.526Z,100717.19
2022-11-29T05:38:56.270Z,100712.47
2022-11-29T05:41:32.474Z,100716.81
2022-11-29T05:44:12.089Z,100722.72
2022-11-29T05:46:39.549Z,100722.34
2022-11-29T05:49:21.093Z,100720.47
2022-11-29T05:52:14.492Z,100718.91
2022-11-29T05:54:52.340Z,100721.53
2022-11-29T05:58:01.935Z,100717.34
2022-11-29T06:00:40.011Z,100722.53
2022-11-29T06:03:18.345Z,100726.53
2022-11-29T06:05:57.495Z,100728.97
2022-11-29T06:08:24.841Z,100736.94
2022-11-29T06:11:00.717Z,100727.91
2022-11-29T06:13:51.087Z,100729.31
2022-11-29T06:16:33.994Z,100731.03
2022-11-29T06:19:20.017Z,100732.78
2022-11-29T06:22:02.635Z,100733.16
2022-11-29T06:24:51.819Z,100742.84
2022-11-29T06:28:04.853Z,100741.81
2022-11-29T06:30:50.781Z,100749.81
2022-11-29T06:33:28.075Z,100746.81
2022-11-29T06:36:16.625Z,100743.69
2022-11-29T06:38:44.253Z,100743.34
2022-11-29T06:41:19.834Z,100749.41
2022-11-29T06:43:47.820Z,100749.41
2022-11-29T06:46:36.892Z,100749.03
2022-11-29T06:49:14.281Z,100756.66
2022-11-29T06:52:00.752Z,100751.47
2022-11-29T06:54:34.253Z,100756.66
2022-11-29T06:57:20.423Z,100755.47
2022-11-29T07:00:00.053Z,100755.09
2022-11-29T07:02:59.533Z,100752.16
2022-11-29T07:05:35.131Z,100754.22
2022-11-29T07:08:06.373Z,100752.00
2022-11-29T07:10:36.814Z,100746.06
2022-11-29T07:13:04.863Z,100744.19
2022-11-29T07:15:32.629Z,100746.06
2022-11-29T07:18:28.598Z,100738.13
2022-11-29T07:21:13.473Z,100745.03
2022-11-29T07:24:00.086Z,100744.53
2022-11-29T07:26:27.449Z,100741.91
2022-11-29T07:29:00.887Z,100741.56
2022-11-29T07:31:59.388Z,100741.72
2022-11-29T07:34:54.665Z,100749.00
2022-11-29T07:37:44.786Z,100748.16
2022-11-29T07:40:37.418Z,100753.69
2022-11-29T07:43:34.894Z,100751.78
2022-11-29T07:46:02.383Z,100752.81
2022-11-29T07:48:29.845Z,100754.91
2022-11-29T07:50:57.563Z,100758.00
2022-11-29T07:53:25.156Z,100761.13
2022-11-29T07:55:53.212Z,100758.72
2022-11-29T07:58:21.087Z,100756.78
2022-11-29T08:00:48.665Z,100762.16
2022-11-29T08:03:16.259Z,100762.31
2022-11-29T08:05:46.461Z,100767.03
2022-11-29T08:08:15.104Z,100765.09
2022-11-29T08:10:42.563Z,100763.38
2022-11-29T08:13:10.066Z,100763.72
2022-11-29T08:15:43.193Z,100762.84
2022-11-29T08:18:10.665Z,100761.47
2022-11-29T08:20:39.260Z,100755.06
2022-11-29T08:23:06.805Z,100763.72
2022-11-29T08:25:34.456Z,100770.50
2022-11-29T08:28:03.002Z,100779.16
2022-11-29T08:30:30.427Z,100763.88
2022-11-29T08:32:58.368Z,100760.59
2022-11-29T08:35:26.069Z,100769.63
2022-11-29T08:37:54.708Z,100762.84
2022-11-29T08:40:23.082Z,100760.41
2022-11-29T08:42:50.684Z,100757.63
2022-11-29T08:45:18.274Z,100754.00
2022-11-29T08:47:45.799Z,100758.00
2022-11-29T08:50:18.201Z,100757.81
2022-11-29T08:53:06.539Z,100760.06
2022-11-29T08:55:40.661Z,100756.09
2022-11-29T08:58:13.897Z,100753.97
2022-11-29T09:00:44.230Z,100759.22
2022-11-29T09:03:30.269Z,100764.38
2022-11-29T09:05:57.892Z,100762.59
2022-11-29T09:08:25.507Z,100752.41
2022-11-29T09:10:53.446Z,100758.50
2022-11-29T09:13:20.892Z,100764.75
2022-11-29T09:15:48.499Z,100765.06
2022-11-29T09:18:16.052Z,100757.63
2022-11-29T09:20:44.822Z,100750.19
2022-11-29T09:23:13.237Z,100755.75
2022-11-29T09:25:40.898Z,100759.38
2022-11-29T09:28:08.645Z,100758.50
2022-11-29T09:30:38.022Z,100753.97
2022-11-29T09:33:05.634Z,100752.25
2022-11-29T09:35:34.691Z,100743.88
2022-11-29T09:38:02.133Z,100752.03
2022-11-29T09:40:40.112Z,100764.84
2022-11-29T09:43:10.514Z,100761.59
2022-11-29T09:45:43.144Z,100758.84
2022-11-29T09:48:26.774Z,100762.59
2022-11-29T09:51:16.995Z,100760.25
2022-11-29T09:54:03.152Z,100755.75
2022-11-29T09:56:47.205Z,100758.16
2022-11-29T09:59:33.658Z,100751.75
2022-11-29T10:02:22.840Z,100747.94
2022-11-29T10:04:59.155Z,100747.25
2022-11-29T10:07:35.256Z,100741.69
2022-11-29T10:10:04.936Z,100737.03
2022-11-29T10:13:15.747Z,100742.22
2022-11-29T10:15:50.457Z,100739.97
2022-11-29T10:18:29.370Z,100735.84
2022-11-29T10:21:03.572Z,100736.69
2022-11-29T10:23:39.028Z,100729.25
2022-11-29T10:26:08.132Z,100722.81
2022-11-29T10:28:37.163Z,100721.78
2022-11-29T10:31:17.038Z,100727.88
2022-11-29T10:33:45.247Z,100725.75
2022-11-29T10:36:25.888Z,100720.06
2022-11-29T10:38:59.298Z,100726.13
2022-11-29T10:41:27.117Z,100712.09
2022-11-29T10:43:58.561Z,100719.38
2022-11-29T10:46:34.252Z,100719.38
2022-11-29T10:49:11.795Z,100722.81
2022-11-29T10:51:39.310Z,100721.78
2022-11-29T10:54:41.686Z,100722.81
2022-11-29T10:57:14.911Z,100720.59
2022-11-29T10:59:59.333Z,100724.56
2022-11-29T11:02:27.917Z,100724.91
2022-11-29T11:04:56.365Z,100720.75
2022-11-29T11:07:36.096Z,100713.66
2022-11-29T11:10:17.414Z,100719.00
2022-11-29T11:13:01.489Z,100713.81
2022-11-29T11:15:31.115Z,100718.84
2022-11-29T11:18:05.013Z,100722.13
2022-11-29T11:20:35.420Z,100722.13
2022-11-29T11:23:07.956Z,100721.91
2022-11-29T11:25:39.177Z,100715.03
2022-11-29T11:28:23.145Z,100719.53
2022-11-29T11:31:11.395Z,100713.44
2022-11-29T11:33:41.789Z,100717.25
2022-11-29T11:36:12.434Z,100717.09
2022-11-29T11:39:08.989Z,100714.84
2022-11-29T11:41:59.601Z,100707.75
2022-11-29T11:44:58.423Z,100713.88
2022-11-29T11:47:29.067Z,100705.75
2022-11-29T11:50:06.852Z,100713.44
2022-11-29T11:52:42.042Z,100708.88
2022-11-29T11:55:21.441Z,100710.97
2022-11-29T11:58:09.339Z,100719.53
2022-11-29T12:01:04.409Z,100719.53
2022-11-29T12:03:56.796Z,100717.78
2022-11-29T12:06:29.978Z,100716.59
2022-11-29T12:09:16.491Z,100709.31
2022-11-29T12:11:51.366Z,100710.50
2022-11-29T12:14:28.589Z,100710.16
2022-11-29T12:17:05.194Z,100703.28
2022-11-29T12:19:41.857Z,100702.22
2022-11-29T12:22:15.368Z,100707.25
2022-11-29T12:24:53.040Z,100701.38
2022-11-29T12:27:20.582Z,100703.44
2022-11-29T12:29:48.070Z,100706.88
2022-11-29T12:32:42.835Z,100703.81
2022-11-29T12:35:35.116Z,100697.38
2022-11-29T12:38:08.804Z,100694.44
2022-11-29T12:40:59.463Z,100697.38
2022-11-29T12:43:45.340Z,100692.53
2022-11-29T12:46:29.311Z,100684.41
2022-11-29T12:49:02.818Z,100692.03
2022-11-29T12:51:57.912Z,100686.28
2022-11-29T12:54:28.212Z,100688.75
2022-11-29T12:57:23.747Z,100687.16
2022-11-29T13:00:17.772Z,100691.31
2022-11-29T13:02:53.474Z,100678.84
2022-11-29T13:05:33.944Z,100676.25
2022-11-29T13:08:04.457Z,100682.31
2022-11-29T13:10:35.842Z,100678.34
2022-11-29T13:13:16.669Z,100678.66
2022-11-29T13:15:44.106Z,100682.31
2022-11-29T13:18:24.193Z,100688.38
2022-11-29T13:20:56.377Z,100686.66
2022-11-29T13:26:38.623Z,100681.44
2022-11-29T13:29:07.757Z,100683.38
2022-11-29T13:31:36.713Z,100684.22
2022-11-29T13:34:13.245Z,100685.47
2022-11-29T13:36:43.575Z,100687.84
2022-11-29T13:39:16.716Z,100692.34
2022-11-29T13:42:10.468Z,100701.34
2022-11-29T13:44:51.941Z,100694.06
2022-11-29T13:47:20.123Z,100700.13
2022-11-29T13:50:07.433Z,100695.25
2022-11-29T13:52:40.908Z,100698.75
2022-11-29T13:55:12.895Z,100701.31
2022-11-29T13:58:15.025Z,100699.59
2022-11-29T14:00:51.217Z,100701.31
2022-11-29T14:03:19.095Z,100709.06
2022-11-29T14:05:49.658Z,100706.16
2022-11-29T14:08:25.065Z,100713.44
2022-11-29T14:10:55.681Z,100712.72
2022-11-29T14:13:31.267Z,100720.66
2022-11-29T14:16:01.979Z,100718.41
2022-11-29T14:18:38.281Z,100720.66
2022-11-29T14:21:05.861Z,100719.81
2022-11-29T14:23:41.372Z,100716.16
2022-11-29T14:26:08.852Z,100714.56
2022-11-29T14:28:39.223Z,100706.25
2022-11-29T14:31:10.676Z,100715.81
2022-11-29T14:33:47.235Z,100706.44
2022-11-29T14:36:14.589Z,100709.22
2022-11-29T14:38:55.741Z,100708.34
2022-11-29T14:41:56.793Z,100712.00
2022-11-29T14:44:28.253Z,100711.47
2022-11-29T14:47:24.467Z,100703.00
2022-11-29T14:49:54.205Z,100704.00
2022-11-29T14:52:32.095Z,100703.31
2022-11-29T14:55:06.107Z,100701.22
2022-11-29T14:58:01.172Z,100699.34
2022-11-29T15:00:34.826Z,100699.69
2022-11-29T15:03:17.581Z,100702.13
2022-11-29T15:05:46.683Z,100699.16
2022-11-29T15:08:19.217Z,100701.22
2022-11-29T15:10:54.143Z,100700.22
2022-11-29T15:13:35.994Z,100708.53
2022-11-29T15:16:24.666Z,100715.63
2022-11-29T15:18:59.252Z,100714.91
2022-11-29T15:21:29.664Z,100713.69
2022-11-29T15:24:08.831Z,100719.63
2022-11-29T15:26:36.407Z,100716.63
2022-11-29T15:29:19.571Z,100720.63
2022-11-29T15:32:04.864Z,100718.88
2022-11-29T15:34:39.713Z,100720.63
2022-11-29T15:37:12.736Z,100721.66
2022-11-29T15:39:40.289Z,100715.06
2022-11-29T15:42:12.988Z,100724.44
2022-11-29T15:44:48.057Z,100721.13
2022-11-29T15:47:24.540Z,100717.50
2022-11-29T15:49:53.819Z,100720.97
2022-11-29T15:52:27.354Z,100716.47
2022-11-29T15:55:00.561Z,100717.50
2022-11-29T15:57:36.149Z,100730.31
2022-11-29T16:00:08.926Z,100720.13
2022-11-29T16:02:40.386Z,100730.47
2022-11-29T16:05:37.251Z,100733.44
2022-11-29T16:08:12.359Z,100732.53
2022-11-29T16:10:47.389Z,100736.34
2022-11-29T16:13:35.371Z,100721.31
2022-11-29T16:16:17.264Z,100720.84
2022-11-29T16:18:46.781Z,100717.84
2022-11-29T16:21:32.733Z,100726.00
2022-11-29T16:24:12.908Z,100728.44
2022-11-29T16:26:44.223Z,100740.75
2022-11-29T16:29:26.969Z,100733.97
2022-11-29T16:31:55.022Z,100737.78
2022-11-29T16:34:27.558Z,100724.97
2022-11-29T16:37:07.380Z,100727.59
2022-11-29T16:39:37.957Z,100727.94
2022-11-29T16:42:25.937Z,100733.63
2022-11-29T16:44:56.573Z,100732.44
2022-11-29T16:47:26.467Z,100739.72
2022-11-29T16:50:03.233Z,100732.25
2022-11-29T16:52:32.995Z,100728.28
2022-11-29T16:55:00.789Z,100733.81
2022-11-29T16:57:29.347Z,100730.34
2022-11-29T16:59:56.763Z,100732.78
2022-11-29T17:02:24.293Z,100731.19
2022-11-29T17:04:51.957Z,100734.00
2022-11-29T17:07:39.434Z,100732.13
2022-11-29T17:10:11.902Z,100727.78
2022-11-29T17:12:42.237Z,100729.34
2022-11-29T17:15:14.024Z,100724.56
2022-11-29T17:17:43.303Z,100721.78
2022-11-29T17:20:12.728Z,100722.66
2022-11-29T17:22:41.358Z,100723.72
2022-11-29T17:25:09.770Z,100716.81
2022-11-29T17:27:37.839Z,100720.25
2022-11-29T17:30:06.703Z,100726.69
2022-11-29T17:32:35.858Z,100724.44
2022-11-29T17:35:03.765Z,100732.22
2022-11-29T17:37:31.866Z,100724.41
2022-11-29T17:39:59.576Z,100728.06
2022-11-29T17:42:27.130Z,100726.00
2022-11-29T17:44:54.569Z,100718.19
2022-11-29T17:47:22.099Z,100721.66
2022-11-29T17:49:49.525Z,100718.53
2022-11-29T17:52:16.979Z,100718.03
2022-11-29T17:54:44.399Z,100722.22
2022-11-29T17:57:11.985Z,100727.25
2022-11-29T17:59:39.490Z,100721.53
2022-11-29T18:02:07.082Z,100717.72
2022-11-29T18:04:34.513Z,100723.59
2022-11-29T18:07:01.923Z,100715.28
2022-11-29T18:09:29.588Z,100716.34
2022-11-29T18:11:57.038Z,100721.03
2022-11-29T18:14:28.078Z,100711.66
2022-11-29T18:16:55.751Z,100708.91
2022-11-29T18:19:23.816Z,100717.03
2022-11-29T18:21:51.756Z,100720.69
2022-11-29T18:24:19.771Z,100716.03
2022-11-29T18:26:47.393Z,100724.50
2022-11-29T18:29:15.208Z,100721.56
2022-11-29T18:31:44.592Z,100726.03
2022-11-29T18:34:13.789Z,100723.78
2022-11-29T18:36:47.296Z,100718.94
2022-11-29T18:39:17.628Z,100726.38
2022-11-29T18:41:47.734Z,100722.91
2022-11-29T18:44:17.550Z,100729.84
2022-11-29T18:46:46.809Z,100724.09
2022-11-29T18:49:16.503Z,100738.69
2022-11-29T18:51:45.941Z,100733.16
2022-11-29T18:54:16.629Z,100735.03
2022-11-29T18:56:45.587Z,100735.19
2022-11-29T18:59:17.040Z,100731.06
2022-11-29T19:01:47.649Z,100738.50
2022-11-29T19:04:20.588Z,100737.66
2022-11-29T19:06:48.441Z,100738.19
2022-11-29T19:09:20.996Z,100747.88
2022-11-29T19:11:51.667Z,100744.06
2022-11-29T19:14:21.018Z,100750.66
2022-11-29T19:16:50.167Z,100743.75
2022-11-29T19:19:19.124Z,100741.97
2022-11-29T19:21:46.917Z,100754.50
2022-11-29T19:24:15.763Z,100756.56
2022-11-29T19:26:45.779Z,100752.91
2022-11-29T19:29:14.365Z,100749.97
2022-11-29T19:31:42.713Z,100750.13
2022-11-29T19:34:10.943Z,100745.81
2022-11-29T19:36:43.141Z,100749.09
2022-11-29T19:39:13.398Z,100750.50
2022-11-29T19:41:43.912Z,100757.41
2022-11-29T19:44:11.867Z,100741.31
2022-11-29T19:46:45.986Z,100745.13
2022-11-29T19:49:13.616Z,100748.94
2022-11-29T19:51:41.442Z,100745.47
2022-11-29T19:54:10.278Z,100745.25
2022-11-29T19:56:38.915Z,100745.63
2022-11-29T19:59:07.611Z,100740.94
2022-11-29T20:01:40.784Z,100743.72
2022-11-29T20:04:10.890Z,100748.22
2022-11-29T20:06:39.223Z,100747.53
2022-11-29T20:09:07.160Z,100739.91
2022-11-29T20:11:35.038Z,100739.41
2022-11-29T20:14:04.272Z,100736.63
2022-11-29T20:16:32.435Z,100729.13
2022-11-29T20:18:59.987Z,100726.56
2022-11-29T20:21:32.706Z,100726.56
2022-11-29T20:24:03.630Z,100718.94
2022-11-29T20:26:33.489Z,100725.00
2022-11-29T20:29:02.190Z,100716.50
2022-11-29T20:31:30.224Z,100725.31
2022-11-29T20:33:57.970Z,100717.50
2022-11-29T20:37:05.781Z,100717.88
2022-11-29T20:39:58.276Z,100713.19
2022-11-29T20:42:56.868Z,100711.97
2022-11-29T20:45:25.517Z,100714.75
2022-11-29T20:47:58.679Z,100710.25
2022-11-29T20:50:28.940Z,100703.13
2022-11-29T20:52:59.619Z,100707.97
2022-11-29T20:55:27.136Z,100709.19
2022-11-29T20:57:55.837Z,100702.28
2022-11-29T21:00:23.886Z,100713.53
2022-11-29T21:02:51.602Z,100704.66
2022-11-29T21:05:19.592Z,100700.31
2022-11-29T21:07:47.357Z,100705.88
2022-11-29T21:10:15.566Z,100705.56
2022-11-29T21:12:45.834Z,100701.06
2022-11-29T21:15:14.995Z,100712.13
2022-11-29T21:17:43.348Z,100713.34
2022-11-29T21:20:20.891Z,100716.97
2022-11-29T21:23:08.836Z,100714.53
2022-11-29T21:25:58.260Z,100709.53
2022-11-29T21:28:34.393Z,100716.28
2022-11-29T21:31:02.208Z,100709.53
2022-11-29T21:33:29.951Z,100709.91
2022-11-29T21:35:58.278Z,100713.34
2022-11-29T21:38:27.087Z,100708.84
2022-11-29T21:40:54.681Z,100706.09
2022-11-29T21:43:28.742Z,100707.81
2022-11-29T21:46:09.577Z,100704.88
2022-11-29T21:48:37.983Z,100707.63
2022-11-29T21:51:07.229Z,100701.06
2022-11-29T21:53:36.816Z,100691.00
2022-11-29T21:56:06.975Z,100697.41
2022-11-29T21:58:36.240Z,100699.31
2022-11-29T22:01:12.458Z,100696.34
2022-11-29T22:03:40.835Z,100699.31
2022-11-29T22:06:10.902Z,100700.69
2022-11-29T22:08:40.228Z,100693.94
2022-11-29T22:11:10.740Z,100694.97
2022-11-29T22:13:59.939Z,100691.31
2022-11-29T22:16:28.513Z,100697.06
2022-11-29T22:18:56.010Z,100692.34
2022-11-29T22:21:24.543Z,100694.06
2022-11-29T22:23:52.814Z,100691.66
2022-11-29T22:26:22.028Z,100690.44
2022-11-29T22:28:49.536Z,100683.88
2022-11-29T22:31:17.125Z,100684.91
2022-11-29T22:33:44.549Z,100682.97
2022-11-29T22:36:13.413Z,100691.66
2022-11-29T22:38:40.901Z,100687.16
2022-11-29T22:41:11.125Z,100690.44
2022-11-29T22:43:40.449Z,100697.34
2022-11-29T22:46:10.764Z,100688.00
2022-11-29T22:48:39.546Z,100689.03
2022-11-29T22:51:11.661Z,100691.66
2022-11-29T22:53:41.893Z,100685.56
2022-11-29T22:56:10.959Z,100684.69
2022-11-29T22:58:38.822Z,100682.97
2022-11-29T23:01:09.549Z,100682.09
2022-11-29T23:03:39.150Z,100683.84
2022-11-29T23:06:11.717Z,100688.34
2022-11-29T23:08:40.566Z,100683.69
2022-11-29T23:11:11.127Z,100678.09
2022-11-29T23:13:41.070Z,100671.56
2022-11-29T23:16:11.558Z,100672.75
2022-11-29T23:18:40.054Z,100670.16
2022-11-29T23:21:10.469Z,100667.91
2022-11-29T23:23:38.446Z,100667.38
2022-11-29T23:26:08.179Z,100669.41
2022-11-29T23:28:36.171Z,100668.00
2022-11-29T23:31:03.662Z,100672.34
2022-11-29T23:33:31.061Z,100664.22
2022-11-29T23:36:05.029Z,100660.41
2022-11-29T23:38:33.551Z,100657.28
2022-11-29T23:41:01.192Z,100654.69
2022-11-29T23:43:30.269Z,100655.72
2022-11-29T23:45:58.322Z,100651.72
2022-11-29T23:48:26.186Z,100648.44
2022-11-29T23:50:53.912Z,100651.38
2022-11-29T23:53:21.471Z,100645.84
2022-11-29T23:56:00.771Z,100655.03
2022-11-29T23:58:29.745Z,100638.41
